sensor_id;sensor_type;location;lat;lon;timestamp;pressure;altitude;pressure_sealevel;temperature;humidity
44138;BME280;29800;55.942;37.314;2022-10-23T00:02:22;99501.38;;;9.44;59.87
44138;BME280;29800;55.942;37.314;2022-10-23T00:04:51;99502.22;;;9.45;60.06
44138;BME280;29800;55.942;37.314;2022-10-23T00:07:17;99500.31;;;9.45;59.68
44138;BME280;29800;55.942;37.314;2022-10-23T00:09:46;99496.16;;;9.43;59.85
44138;BME280;29800;55.942;37.314;2022-10-23T00:12:12;99502.78;;;9.47;60.15
44138;BME280;29800;55.942;37.314;2022-10-23T00:14:38;99493.78;;;9.46;59.54
44138;BME280;29800;55.942;37.314;2022-10-23T00:17:04;99491.63;;;9.48;59.69
44138;BME280;29800;55.942;37.314;2022-10-23T00:19:30;99495.41;;;9.47;59.29
44138;BME280;29800;55.942;37.314;2022-10-23T00:21:56;99491.63;;;9.48;59.67
44138;BME280;29800;55.942;37.314;2022-10-23T00:24:22;99491.28;;;9.45;59.21
44138;BME280;29800;55.942;37.314;2022-10-23T00:26:49;99488.56;;;9.45;59.37
44138;BME280;29800;55.942;37.314;2022-10-23T00:29:15;99482.84;;;9.46;59.60
44138;BME280;29800;55.942;37.314;2022-10-23T00:31:41;99471.69;;;9.48;59.46
44138;BME280;29800;55.942;37.314;2022-10-23T00:34:07;99468.84;;;9.43;59.29
44138;BME280;29800;55.942;37.314;2022-10-23T00:36:34;99464.22;;;9.43;59.52
44138;BME280;29800;55.942;37.314;2022-10-23T00:39:00;99460.88;;;9.41;59.55
44138;BME280;29800;55.942;37.314;2022-10-23T00:41:27;99457.91;;;9.43;59.56
44138;BME280;29800;55.942;37.314;2022-10-23T00:44:05;99455.97;;;9.38;59.23
44138;BME280;29800;55.942;37.314;2022-10-23T00:46:32;99456.44;;;9.35;59.36
44138;BME280;29800;55.942;37.314;2022-10-23T00:48:59;99451.16;;;9.28;59.81
44138;BME280;29800;55.942;37.314;2022-10-23T00:51:29;99453.63;;;9.30;59.61
44138;BME280;29800;55.942;37.314;2022-10-23T00:53:58;99447.25;;;9.24;59.21
44138;BME280;29800;55.942;37.314;2022-10-23T00:56:25;99444.53;;;9.24;59.84
44138;BME280;29800;55.942;37.314;2022-10-23T00:58:51;99437.16;;;9.25;59.68
44138;BME280;29800;55.942;37.314;2022-10-23T01:01:20;99435.44;;;9.18;59.28
44138;BME280;29800;55.942;37.314;2022-10-23T01:03:47;99440.47;;;9.10;59.63
44138;BME280;29800;55.942;37.314;2022-10-23T01:06:40;99434.59;;;9.18;59.66
44138;BME280;29800;55.942;37.314;2022-10-23T01:09:12;99431.19;;;9.11;59.83
44138;BME280;29800;55.942;37.314;2022-10-23T01:17:47;99424.84;;;9.22;59.87
44138;BME280;29800;55.942;37.314;2022-10-23T01:26:07;99426.66;;;8.99;59.38
44138;BME280;29800;55.942;37.314;2022-10-23T01:29:02;99417.88;;;8.97;59.63
44138;BME280;29800;55.942;37.314;2022-10-23T01:31:35;99422.56;;;8.85;59.59
44138;BME280;29800;55.942;37.314;2022-10-23T01:34:49;99417.81;;;8.92;59.91
44138;BME280;29800;55.942;37.314;2022-10-23T01:37:31;99425.31;;;8.85;59.69
44138;BME280;29800;55.942;37.314;2022-10-23T01:40:04;99417.84;;;8.80;59.75
44138;BME280;29800;55.942;37.314;2022-10-23T01:42:38;99415.88;;;8.76;59.56
44138;BME280;29800;55.942;37.314;2022-10-23T01:45:14;99409.94;;;8.79;59.67
44138;BME280;29800;55.942;37.314;2022-10-23T01:47:44;99409.34;;;8.77;59.37
44138;BME280;29800;55.942;37.314;2022-10-23T01:50:13;99411.56;;;8.80;59.38
44138;BME280;29800;55.942;37.314;2022-10-23T01:52:43;99396.00;;;8.80;59.24
44138;BME280;29800;55.942;37.314;2022-10-23T01:55:10;99391.41;;;8.81;59.15
44138;BME280;29800;55.942;37.314;2022-10-23T01:57:39;99392.56;;;8.85;59.18
44138;BME280;29800;55.942;37.314;2022-10-23T02:00:10;99400.97;;;8.83;59.14
44138;BME280;29800;55.942;37.314;2022-10-23T02:02:53;99394.47;;;8.85;58.96
44138;BME280;29800;55.942;37.314;2022-10-23T02:05:28;99383.47;;;8.79;58.57
44138;BME280;29800;55.942;37.314;2022-10-23T02:07:57;99391.66;;;8.79;58.51
44138;BME280;29800;55.942;37.314;2022-10-23T02:13:25;99381.47;;;8.75;58.48
44138;BME280;29800;55.942;37.314;2022-10-23T02:16:09;99381.63;;;8.68;58.80
44138;BME280;29800;55.942;37.314;2022-10-23T02:21:53;99389.16;;;8.61;59.06
44138;BME280;29800;55.942;37.314;2022-10-23T02:24:32;99386.06;;;8.57;58.67
44138;BME280;29800;55.942;37.314;2022-10-23T02:27:06;99384.44;;;8.56;59.27
44138;BME280;29800;55.942;37.314;2022-10-23T02:29:39;99385.75;;;8.54;58.93
44138;BME280;29800;55.942;37.314;2022-10-23T02:32:08;99378.97;;;8.56;58.83
44138;BME280;29800;55.942;37.314;2022-10-23T02:34:36;99374.59;;;8.55;59.30
44138;BME280;29800;55.942;37.314;2022-10-23T02:37:02;99376.16;;;8.51;58.72
44138;BME280;29800;55.942;37.314;2022-10-23T02:39:28;99377.59;;;8.42;59.25
44138;BME280;29800;55.942;37.314;2022-10-23T02:47:37;99367.16;;;8.39;59.53
44138;BME280;29800;55.942;37.314;2022-10-23T02:58:21;99365.63;;;8.14;59.27
44138;BME280;29800;55.942;37.314;2022-10-23T03:00:54;99362.31;;;8.12;59.33
44138;BME280;29800;55.942;37.314;2022-10-23T03:03:30;99354.13;;;8.12;59.41
44138;BME280;29800;55.942;37.314;2022-10-23T03:06:02;99361.13;;;8.08;58.98
44138;BME280;29800;55.942;37.314;2022-10-23T03:08:28;99338.84;;;8.11;59.23
44138;BME280;29800;55.942;37.314;2022-10-23T03:10:54;99344.88;;;8.13;59.38
44138;BME280;29800;55.942;37.314;2022-10-23T03:13:23;99343.22;;;8.12;58.41
44138;BME280;29800;55.942;37.314;2022-10-23T03:15:49;99332.72;;;8.04;59.44
44138;BME280;29800;55.942;37.314;2022-10-23T03:18:15;99332.00;;;8.08;58.57
44138;BME280;29800;55.942;37.314;2022-10-23T03:20:46;99335.53;;;8.09;59.74
44138;BME280;29800;55.942;37.314;2022-10-23T03:23:13;99327.59;;;8.07;59.08
44138;BME280;29800;55.942;37.314;2022-10-23T03:25:39;99326.19;;;8.05;58.98
44138;BME280;29800;55.942;37.314;2022-10-23T03:28:05;99328.09;;;8.04;59.04
44138;BME280;29800;55.942;37.314;2022-10-23T03:30:34;99327.28;;;8.04;58.56
44138;BME280;29800;55.942;37.314;2022-10-23T03:33:00;99326.41;;;8.03;58.78
44138;BME280;29800;55.942;37.314;2022-10-23T03:35:26;99325.59;;;8.03;58.80
44138;BME280;29800;55.942;37.314;2022-10-23T03:37:52;99331.53;;;8.00;58.43
44138;BME280;29800;55.942;37.314;2022-10-23T03:40:18;99323.13;;;8.01;58.87
44138;BME280;29800;55.942;37.314;2022-10-23T03:42:44;99327.09;;;7.94;59.01
44138;BME280;29800;55.942;37.314;2022-10-23T03:45:17;99327.09;;;7.94;58.67
44138;BME280;29800;55.942;37.314;2022-10-23T03:47:43;99321.25;;;7.90;58.93
44138;BME280;29800;55.942;37.314;2022-10-23T03:50:10;99323.66;;;7.86;58.99
44138;BME280;29800;55.942;37.314;2022-10-23T03:52:41;99321.75;;;7.87;58.55
44138;BME280;29800;55.942;37.314;2022-10-23T03:55:07;99319.66;;;7.77;59.18
44138;BME280;29800;55.942;37.314;2022-10-23T03:57:35;99320.72;;;7.76;59.18
44138;BME280;29800;55.942;37.314;2022-10-23T04:00:04;99322.97;;;7.79;58.89
44138;BME280;29800;55.942;37.314;2022-10-23T04:02:31;99319.22;;;7.68;59.85
44138;BME280;29800;55.942;37.314;2022-10-23T04:04:57;99313.75;;;7.68;59.49
44138;BME280;29800;55.942;37.314;2022-10-23T04:07:23;99318.06;;;7.64;59.43
44138;BME280;29800;55.942;37.314;2022-10-23T04:09:50;99318.28;;;7.63;59.53
44138;BME280;29800;55.942;37.314;2022-10-23T04:12:16;99321.97;;;7.57;59.99
44138;BME280;29800;55.942;37.314;2022-10-23T04:14:43;99318.19;;;7.58;59.20
44138;BME280;29800;55.942;37.314;2022-10-23T04:17:09;99325.97;;;7.66;59.50
44138;BME280;29800;55.942;37.314;2022-10-23T04:19:35;99322.16;;;7.67;59.27
44138;BME280;29800;55.942;37.314;2022-10-23T04:22:01;99322.66;;;7.64;59.29
44138;BME280;29800;55.942;37.314;2022-10-23T04:24:27;99321.00;;;7.63;59.87
44138;BME280;29800;55.942;37.314;2022-10-23T04:26:53;99322.66;;;7.64;59.32
44138;BME280;29800;55.942;37.314;2022-10-23T04:29:20;99323.84;;;7.68;59.99
44138;BME280;29800;55.942;37.314;2022-10-23T04:31:49;99320.03;;;7.69;59.47
44138;BME280;29800;55.942;37.314;2022-10-23T04:34:17;99316.59;;;7.73;59.72
44138;BME280;29800;55.942;37.314;2022-10-23T04:36:44;99309.50;;;7.72;58.94
44138;BME280;29800;55.942;37.314;2022-10-23T04:39:10;99313.28;;;7.71;59.09
44138;BME280;29800;55.942;37.314;2022-10-23T04:41:36;99317.44;;;7.74;59.00
44138;BME280;29800;55.942;37.314;2022-10-23T04:44:03;99307.59;;;7.73;58.98
44138;BME280;29800;55.942;37.314;2022-10-23T04:46:34;99311.22;;;7.79;58.84
44138;BME280;29800;55.942;37.314;2022-10-23T04:49:01;99307.09;;;7.76;59.33
44138;BME280;29800;55.942;37.314;2022-10-23T04:51:45;99298.94;;;7.76;59.60
44138;BME280;29800;55.942;37.314;2022-10-23T04:54:38;99298.56;;;7.84;59.00
44138;BME280;29800;55.942;37.314;2022-10-23T04:57:24;99299.63;;;7.83;59.14
44138;BME280;29800;55.942;37.314;2022-10-23T05:00:04;99293.91;;;7.85;59.54
44138;BME280;29800;55.942;37.314;2022-10-23T05:02:38;99292.41;;;8.06;59.30
44138;BME280;29800;55.942;37.314;2022-10-23T05:05:05;99296.41;;;8.15;58.95
44138;BME280;29800;55.942;37.314;2022-10-23T05:07:49;99293.22;;;8.06;58.39
44138;BME280;29800;55.942;37.314;2022-10-23T05:10:27;99295.53;;;7.98;59.22
44138;BME280;29800;55.942;37.314;2022-10-23T05:13:01;99289.41;;;7.90;59.16
44138;BME280;29800;55.942;37.314;2022-10-23T05:15:30;99290.22;;;7.91;59.34
44138;BME280;29800;55.942;37.314;2022-10-23T05:18:45;99297.69;;;7.96;59.37
44138;BME280;29800;55.942;37.314;2022-10-23T05:20:48;99295.63;;;8.03;59.99
44138;BME280;29800;55.942;37.314;2022-10-23T05:23:17;99296.31;;;8.10;59.91
44138;BME280;29800;55.942;37.314;2022-10-23T05:25:53;99294.97;;;8.13;59.54
44138;BME280;29800;55.942;37.314;2022-10-23T05:28:25;99300.78;;;8.16;59.81
44138;BME280;29800;55.942;37.314;2022-10-23T05:30:52;99297.13;;;8.10;59.37
44138;BME280;29800;55.942;37.314;2022-10-23T05:33:23;99300.69;;;8.11;59.26
44138;BME280;29800;55.942;37.314;2022-10-23T05:35:49;99297.63;;;8.07;59.68
44138;BME280;29800;55.942;37.314;2022-10-23T05:38:16;99297.13;;;8.10;59.71
44138;BME280;29800;55.942;37.314;2022-10-23T05:40:43;99290.34;;;8.13;59.50
44138;BME280;29800;55.942;37.314;2022-10-23T05:43:15;99278.47;;;8.19;59.12
44138;BME280;29800;55.942;37.314;2022-10-23T05:45:48;99282.63;;;8.22;59.82
44138;BME280;29800;55.942;37.314;2022-10-23T05:48:37;99283.84;;;8.31;59.63
44138;BME280;29800;55.942;37.314;2022-10-23T05:51:08;99270.47;;;8.29;59.39
44138;BME280;29800;55.942;37.314;2022-10-23T05:53:58;99273.47;;;8.28;59.84
44138;BME280;29800;55.942;37.314;2022-10-23T05:56:39;99272.13;;;8.31;59.79
44138;BME280;29800;55.942;37.314;2022-10-23T05:59:20;99252.47;;;8.28;59.33
44138;BME280;29800;55.942;37.314;2022-10-23T06:01:49;99253.53;;;8.27;59.58
44138;BME280;29800;55.942;37.314;2022-10-23T06:04:23;99264.19;;;8.29;59.69
44138;BME280;29800;55.942;37.314;2022-10-23T06:07:25;99259.41;;;8.36;60.26
44138;BME280;29800;55.942;37.314;2022-10-23T06:09:53;99257.50;;;8.37;59.96
44138;BME280;29800;55.942;37.314;2022-10-23T06:12:21;99250.69;;;8.51;60.15
44138;BME280;29800;55.942;37.314;2022-10-23T06:14:49;99245.63;;;8.60;59.73
44138;BME280;29800;55.942;37.314;2022-10-23T06:17:15;99239.00;;;8.73;59.40
44138;BME280;29800;55.942;37.314;2022-10-23T06:19:47;99240.47;;;8.80;59.16
44138;BME280;29800;55.942;37.314;2022-10-23T06:22:16;99232.94;;;8.88;58.31
44138;BME280;29800;55.942;37.314;2022-10-23T06:24:50;99235.56;;;8.99;58.68
44138;BME280;29800;55.942;37.314;2022-10-23T06:27:23;99230.81;;;9.12;58.80
44138;BME280;29800;55.942;37.314;2022-10-23T06:29:50;99229.88;;;9.23;58.54
44138;BME280;29800;55.942;37.314;2022-10-23T06:32:16;99230.50;;;9.30;58.43
44138;BME280;29800;55.942;37.314;2022-10-23T06:34:53;99227.03;;;9.35;57.73
44138;BME280;29800;55.942;37.314;2022-10-23T06:37:19;99226.31;;;9.23;58.12
44138;BME280;29800;55.942;37.314;2022-10-23T06:39:52;99220.00;;;9.00;58.42
44138;BME280;29800;55.942;37.314;2022-10-23T06:42:27;99216.00;;;8.69;58.99
44138;BME280;29800;55.942;37.314;2022-10-23T06:44:56;99213.56;;;8.33;60.16
44138;BME280;29800;55.942;37.314;2022-10-23T06:47:41;99207.00;;;8.00;61.71
44138;BME280;29800;55.942;37.314;2022-10-23T06:50:26;99215.06;;;7.78;62.36
44138;BME280;29800;55.942;37.314;2022-10-23T06:52:56;99203.88;;;7.63;62.91
44138;BME280;29800;55.942;37.314;2022-10-23T06:55:22;99211.66;;;7.42;63.23
44138;BME280;29800;55.942;37.314;2022-10-23T06:57:48;99205.81;;;7.22;64.09
44138;BME280;29800;55.942;37.314;2022-10-23T07:00:14;99207.72;;;7.09;65.31
44138;BME280;29800;55.942;37.314;2022-10-23T07:02:48;99203.13;;;6.98;65.81
44138;BME280;29800;55.942;37.314;2022-10-23T07:05:15;99200.69;;;6.85;65.75
44138;BME280;29800;55.942;37.314;2022-10-23T07:07:42;99204.56;;;6.77;66.47
44138;BME280;29800;55.942;37.314;2022-10-23T07:10:12;99211.69;;;6.78;66.61
44138;BME280;29800;55.942;37.314;2022-10-23T07:12:43;99199.50;;;6.80;67.06
44138;BME280;29800;55.942;37.314;2022-10-23T07:15:28;99191.34;;;6.80;67.72
44138;BME280;29800;55.942;37.314;2022-10-23T07:17:55;99196.53;;;6.82;67.91
44138;BME280;29800;55.942;37.314;2022-10-23T07:20:22;99196.91;;;6.86;67.88
44138;BME280;29800;55.942;37.314;2022-10-23T07:22:51;99189.09;;;6.89;68.02
44138;BME280;29800;55.942;37.314;2022-10-23T07:25:25;99182.94;;;6.94;68.33
44138;BME280;29800;55.942;37.314;2022-10-23T07:27:52;99179.72;;;6.97;67.81
44138;BME280;29800;55.942;37.314;2022-10-23T07:30:22;99176.50;;;7.00;68.88
44138;BME280;29800;55.942;37.314;2022-10-23T07:32:52;99185.28;;;7.02;68.00
44138;BME280;29800;55.942;37.314;2022-10-23T07:35:43;99180.41;;;7.04;67.90
44138;BME280;29800;55.942;37.314;2022-10-23T07:38:16;99181.94;;;7.00;68.49
44138;BME280;29800;55.942;37.314;2022-10-23T07:40:47;99173.31;;;7.03;68.32
44138;BME280;29800;55.942;37.314;2022-10-23T07:43:16;99170.09;;;7.06;68.19
44138;BME280;29800;55.942;37.314;2022-10-23T07:45:46;99171.53;;;7.09;68.11
44138;BME280;29800;55.942;37.314;2022-10-23T07:48:19;99177.88;;;7.14;67.98
44138;BME280;29800;55.942;37.314;2022-10-23T07:51:03;99173.63;;;7.18;67.91
44138;BME280;29800;55.942;37.314;2022-10-23T07:53:34;99176.13;;;7.20;68.58
44138;BME280;29800;55.942;37.314;2022-10-23T07:56:30;99174.94;;;7.16;68.04
44138;BME280;29800;55.942;37.314;2022-10-23T07:59:18;99163.84;;;7.06;68.30
44138;BME280;29800;55.942;37.314;2022-10-23T08:01:50;99170.25;;;6.99;68.85
44138;BME280;29800;55.942;37.314;2022-10-23T08:04:18;99167.28;;;7.01;69.15
44138;BME280;29800;55.942;37.314;2022-10-23T08:06:53;99161.84;;;7.01;68.59
44138;BME280;29800;55.942;37.314;2022-10-23T08:09:21;99162.91;;;7.00;69.64
44138;BME280;29800;55.942;37.314;2022-10-23T08:11:47;99164.81;;;6.99;69.48
44138;BME280;29800;55.942;37.314;2022-10-23T08:14:17;99161.38;;;7.04;69.76
44138;BME280;29800;55.942;37.314;2022-10-23T08:16:45;99156.84;;;7.10;69.49
44138;BME280;29800;55.942;37.314;2022-10-23T08:19:13;99158.25;;;7.12;69.26
44138;BME280;29800;55.942;37.314;2022-10-23T08:21:41;99153.28;;;7.09;69.68
44138;BME280;29800;55.942;37.314;2022-10-23T08:24:10;99162.53;;;7.08;69.78
44138;BME280;29800;55.942;37.314;2022-10-23T08:26:42;99159.56;;;7.10;69.56
44138;BME280;29800;55.942;37.314;2022-10-23T08:29:09;99151.16;;;7.11;69.64
44138;BME280;29800;55.942;37.314;2022-10-23T08:31:35;99148.44;;;7.11;69.65
44138;BME280;29800;55.942;37.314;2022-10-23T08:34:22;99153.53;;;7.08;69.80
44138;BME280;29800;55.942;37.314;2022-10-23T08:36:50;99154.13;;;7.10;70.40
44138;BME280;29800;55.942;37.314;2022-10-23T08:39:17;99149.03;;;7.13;70.29
44138;BME280;29800;55.942;37.314;2022-10-23T08:42:05;99148.53;;;7.16;70.49
44138;BME280;29800;55.942;37.314;2022-10-23T08:44:33;99151.84;;;7.18;69.89
44138;BME280;29800;55.942;37.314;2022-10-23T08:47:11;99155.16;;;7.21;70.50
44138;BME280;29800;55.942;37.314;2022-10-23T08:49:56;99150.28;;;7.23;70.12
44138;BME280;29800;55.942;37.314;2022-10-23T08:55:04;99145.78;;;7.28;70.06
44138;BME280;29800;55.942;37.314;2022-10-23T08:57:35;99143.41;;;7.32;69.71
44138;BME280;29800;55.942;37.314;2022-10-23T09:00:10;99141.25;;;7.34;70.59
44138;BME280;29800;55.942;37.314;2022-10-23T09:02:55;99139.72;;;7.38;69.99
44138;BME280;29800;55.942;37.314;2022-10-23T09:05:30;99126.91;;;7.39;69.88
44138;BME280;29800;55.942;37.314;2022-10-23T09:08:06;99125.84;;;7.40;69.74
44138;BME280;29800;55.942;37.314;2022-10-23T09:10:50;99122.38;;;7.44;70.08
44138;BME280;29800;55.942;37.314;2022-10-23T09:13:39;99118.09;;;7.48;69.86
44138;BME280;29800;55.942;37.314;2022-10-23T09:18:54;99115.38;;;7.48;69.89
44138;BME280;29800;55.942;37.314;2022-10-23T09:21:26;99108.88;;;7.49;69.76
44138;BME280;29800;55.942;37.314;2022-10-23T09:23:52;99109.94;;;7.48;69.32
44138;BME280;29800;55.942;37.314;2022-10-23T09:26:18;99106.63;;;7.46;70.06
44138;BME280;29800;55.942;37.314;2022-10-23T09:28:47;99110.41;;;7.45;69.64
44138;BME280;29800;55.942;37.314;2022-10-23T09:31:14;99102.81;;;7.47;69.35
44138;BME280;29800;55.942;37.314;2022-10-23T09:33:55;99114.31;;;7.49;69.57
44138;BME280;29800;55.942;37.314;2022-10-23T09:36:22;99105.56;;;7.47;69.72
44138;BME280;29800;55.942;37.314;2022-10-23T09:38:56;99098.72;;;7.45;70.72
44138;BME280;29800;55.942;37.314;2022-10-23T09:41:38;99096.81;;;7.45;70.35
44138;BME280;29800;55.942;37.314;2022-10-23T09:47:17;99088.56;;;7.40;70.19
44138;BME280;29800;55.942;37.314;2022-10-23T09:49:48;99096.16;;;7.38;70.28
44138;BME280;29800;55.942;37.314;2022-10-23T09:55:00;99087.38;;;7.36;70.44
44138;BME280;29800;55.942;37.314;2022-10-23T09:57:41;99082.44;;;7.33;71.09
44138;BME280;29800;55.942;37.314;2022-10-23T10:00:17;99078.06;;;7.32;70.46
44138;BME280;29800;55.942;37.314;2022-10-23T10:03:18;99072.63;;;7.32;70.71
44138;BME280;29800;55.942;37.314;2022-10-23T10:06:02;99079.53;;;7.23;71.00
44138;BME280;29800;55.942;37.314;2022-10-23T10:08:35;99071.59;;;7.21;70.86
44138;BME280;29800;55.942;37.314;2022-10-23T10:14:32;99075.16;;;7.22;71.32
44138;BME280;29800;55.942;37.314;2022-10-23T10:17:05;99077.53;;;7.18;71.54
44138;BME280;29800;55.942;37.314;2022-10-23T10:25:25;99066.78;;;7.11;71.73
44138;BME280;29800;55.942;37.314;2022-10-23T10:31:32;99058.06;;;7.09;72.10
44138;BME280;29800;55.942;37.314;2022-10-23T10:34:29;99055.72;;;7.01;72.23
44138;BME280;29800;55.942;37.314;2022-10-23T10:40:18;99047.84;;;6.88;72.80
44138;BME280;29800;55.942;37.314;2022-10-23T10:43:16;99049.53;;;6.89;73.01
44138;BME280;29800;55.942;37.314;2022-10-23T10:45:47;99033.19;;;6.89;74.16
44138;BME280;29800;55.942;37.314;2022-10-23T10:51:29;99038.81;;;6.99;73.40
44138;BME280;29800;55.942;37.314;2022-10-23T10:54:27;99036.09;;;6.99;73.72
44138;BME280;29800;55.942;37.314;2022-10-23T10:56:59;99029.00;;;6.98;73.70
44138;BME280;29800;55.942;37.314;2022-10-23T10:59:30;99031.72;;;6.98;73.82
44138;BME280;29800;55.942;37.314;2022-10-23T11:02:26;99026.59;;;7.02;73.80
44138;BME280;29800;55.942;37.314;2022-10-23T11:05:14;99022.59;;;7.04;73.82
44138;BME280;29800;55.942;37.314;2022-10-23T11:10:38;99017.53;;;6.96;73.87
44138;BME280;29800;55.942;37.314;2022-10-23T11:13:34;99010.81;;;6.87;74.02
44138;BME280;29800;55.942;37.314;2022-10-23T11:16:14;99011.22;;;6.78;74.72
44138;BME280;29800;55.942;37.314;2022-10-23T11:18:45;99008.66;;;6.72;74.67
44138;BME280;29800;55.942;37.314;2022-10-23T11:21:25;99000.38;;;6.67;74.78
44138;BME280;29800;55.942;37.314;2022-10-23T11:32:47;98985.53;;;6.57;76.18
44138;BME280;29800;55.942;37.314;2022-10-23T11:35:35;98979.84;;;6.59;76.25
44138;BME280;29800;55.942;37.314;2022-10-23T11:38:34;98979.34;;;6.62;76.46
44138;BME280;29800;55.942;37.314;2022-10-23T11:41:25;98978.88;;;6.65;76.52
44138;BME280;29800;55.942;37.314;2022-10-23T11:43:57;98974.16;;;6.60;76.36
44138;BME280;29800;55.942;37.314;2022-10-23T11:46:37;98978.22;;;6.58;76.54
44138;BME280;29800;55.942;37.314;2022-10-23T11:49:05;98977.03;;;6.54;76.73
44138;BME280;29800;55.942;37.314;2022-10-23T11:51:43;98972.06;;;6.51;77.06
44138;BME280;29800;55.942;37.314;2022-10-23T11:59:34;98970.22;;;6.39;77.64
44138;BME280;29800;55.942;37.314;2022-10-23T12:02:08;98968.47;;;6.33;77.83
44138;BME280;29800;55.942;37.314;2022-10-23T12:04:48;98974.16;;;6.32;77.60
44138;BME280;29800;55.942;37.314;2022-10-23T12:07:26;98969.69;;;6.25;78.69
44138;BME280;29800;55.942;37.314;2022-10-23T12:09:58;98977.00;;;6.25;78.10
44138;BME280;29800;55.942;37.314;2022-10-23T12:12:36;98979.72;;;6.25;78.57
44138;BME280;29800;55.942;37.314;2022-10-23T12:17:39;98965.53;;;6.23;79.74
44138;BME280;29800;55.942;37.314;2022-10-23T12:29:21;98964.97;;;6.21;80.22
44138;BME280;29800;55.942;37.314;2022-10-23T12:31:26;98964.16;;;6.20;80.00
44138;BME280;29800;55.942;37.314;2022-10-23T12:37:00;98960.63;;;6.20;80.42
44138;BME280;29800;55.942;37.314;2022-10-23T12:39:34;98949.59;;;6.15;80.96
44138;BME280;29800;55.942;37.314;2022-10-23T12:42:02;98955.28;;;6.13;81.15
44138;BME280;29800;55.942;37.314;2022-10-23T12:44:29;98947.41;;;6.12;81.17
44138;BME280;29800;55.942;37.314;2022-10-23T12:47:00;98952.31;;;6.15;81.29
44138;BME280;29800;55.942;37.314;2022-10-23T12:49:29;98949.03;;;6.13;80.95
44138;BME280;29800;55.942;37.314;2022-10-23T12:52:05;98943.59;;;6.13;81.70
44138;BME280;29800;55.942;37.314;2022-10-23T12:54:37;98945.25;;;6.14;81.63
44138;BME280;29800;55.942;37.314;2022-10-23T12:57:24;98941.47;;;6.15;81.38
44138;BME280;29800;55.942;37.314;2022-10-23T13:00:15;98939.34;;;6.17;82.28
44138;BME280;29800;55.942;37.314;2022-10-23T13:02:41;98926.47;;;6.12;82.18
44138;BME280;29800;55.942;37.314;2022-10-23T13:05:12;98933.81;;;6.12;82.42
44138;BME280;29800;55.942;37.314;2022-10-23T13:07:43;98936.53;;;6.12;81.85
44138;BME280;29800;55.942;37.314;2022-10-23T13:10:13;98930.25;;;6.11;82.36
44138;BME280;29800;55.942;37.314;2022-10-23T13:12:54;98918.56;;;6.11;82.47
44138;BME280;29800;55.942;37.314;2022-10-23T13:15:21;98921.03;;;6.12;82.62
44138;BME280;29800;55.942;37.314;2022-10-23T13:18:08;98920.56;;;6.15;82.61
44138;BME280;29800;55.942;37.314;2022-10-23T13:20:41;98921.84;;;6.13;82.62
44138;BME280;29800;55.942;37.314;2022-10-23T13:23:16;98919.97;;;6.13;82.62
44138;BME280;29800;55.942;37.314;2022-10-23T13:25:56;98915.38;;;6.14;82.36
44138;BME280;29800;55.942;37.314;2022-10-23T13:28:26;98915.63;;;6.12;82.96
44138;BME280;29800;55.942;37.314;2022-10-23T13:31:31;98908.38;;;6.18;82.93
44138;BME280;29800;55.942;37.314;2022-10-23T13:36:24;98904.03;;;6.17;83.03
44138;BME280;29800;55.942;37.314;2022-10-23T13:39:02;98906.25;;;6.20;83.43
44138;BME280;29800;55.942;37.314;2022-10-23T13:41:49;98906.00;;;6.21;83.26
44138;BME280;29800;55.942;37.314;2022-10-23T13:44:22;98905.66;;;6.18;83.73
44138;BME280;29800;55.942;37.314;2022-10-23T13:46:49;98903.19;;;6.16;83.28
44138;BME280;29800;55.942;37.314;2022-10-23T13:49:17;98902.13;;;6.17;83.37
44138;BME280;29800;55.942;37.314;2022-10-23T13:51:54;98900.53;;;6.33;83.62
44138;BME280;29800;55.942;37.314;2022-10-23T13:54:27;98896.94;;;6.44;84.13
44138;BME280;29800;55.942;37.314;2022-10-23T13:56:56;98892.81;;;6.59;83.19
44138;BME280;29800;55.942;37.314;2022-10-23T13:59:25;98892.34;;;6.62;83.25
44138;BME280;29800;55.942;37.314;2022-10-23T14:01:54;98890.03;;;6.54;82.47
44138;BME280;29800;55.942;37.314;2022-10-23T14:04:23;98889.38;;;6.47;82.60
44138;BME280;29800;55.942;37.314;2022-10-23T14:07:01;98890.91;;;6.42;82.54
44138;BME280;29800;55.942;37.314;2022-10-23T14:09:27;98896.25;;;6.37;82.45
44138;BME280;29800;55.942;37.314;2022-10-23T14:11:53;98889.41;;;6.35;82.99
44138;BME280;29800;55.942;37.314;2022-10-23T14:14:24;98888.00;;;6.32;82.57
44138;BME280;29800;55.942;37.314;2022-10-23T14:16:50;98888.25;;;6.31;83.02
44138;BME280;29800;55.942;37.314;2022-10-23T14:19:20;98888.47;;;6.29;83.16
44138;BME280;29800;55.942;37.314;2022-10-23T14:21:48;98893.91;;;6.29;83.72
44138;BME280;29800;55.942;37.314;2022-10-23T14:24:29;98883.53;;;6.26;83.22
44138;BME280;29800;55.942;37.314;2022-10-23T14:26:58;98884.38;;;6.27;83.38
44138;BME280;29800;55.942;37.314;2022-10-23T14:29:27;98880.00;;;6.25;83.67
44138;BME280;29800;55.942;37.314;2022-10-23T14:31:53;98870.19;;;6.24;83.64
44138;BME280;29800;55.942;37.314;2022-10-23T14:34:21;98869.38;;;6.24;83.73
44138;BME280;29800;55.942;37.314;2022-10-23T14:36:48;98874.81;;;6.24;83.96
44138;BME280;29800;55.942;37.314;2022-10-23T14:39:14;98874.81;;;6.24;83.67
44138;BME280;29800;55.942;37.314;2022-10-23T14:41:40;98866.66;;;6.24;84.08
44138;BME280;29800;55.942;37.314;2022-10-23T14:44:17;98859.31;;;6.24;83.99
44138;BME280;29800;55.942;37.314;2022-10-23T14:46:43;98868.78;;;6.22;84.39
44138;BME280;29800;55.942;37.314;2022-10-23T14:49:11;98857.94;;;6.22;84.63
44138;BME280;29800;55.942;37.314;2022-10-23T14:51:37;98862.28;;;6.23;84.36
44138;BME280;29800;55.942;37.314;2022-10-23T14:54:07;98863.94;;;6.24;84.51
44138;BME280;29800;55.942;37.314;2022-10-23T14:56:36;98860.25;;;6.30;84.63
44138;BME280;29800;55.942;37.314;2022-10-23T14:59:15;98851.53;;;6.28;84.10
44138;BME280;29800;55.942;37.314;2022-10-23T15:01:47;98858.59;;;6.29;84.00
44138;BME280;29800;55.942;37.314;2022-10-23T15:04:19;98849.88;;;6.27;84.66
44138;BME280;29800;55.942;37.314;2022-10-23T15:06:51;98852.59;;;6.27;84.22